Time;durP1;ratioP1;P1;durP2;ratioP2;P2;SDS_P1;SDS_P2;PMS_P1;PMS_P2;Temp;Humidity;BMP_temperature;BMP_pressure;BME280_temperature;BME280_humidity;BME280_pressure;Samples;Min_cycle;Max_cycle;Signal;HPM_P1;HPM_P2
2021/03/27 00:01:59;;;;;;;8.87;4.47;;;14.20;80.30;;;;;;5052771;28;20232;-66
2021/03/27 00:04:35;;;;;;;5.67;4.30;;;14.20;80.50;;;;;;5052574;28;20259;-67
2021/03/27 00:07:11;;;;;;;7.17;4.23;;;14.20;80.50;;;;;;5052335;28;20213;-69
2021/03/27 00:09:42;;;;;;;8.67;4.67;;;14.30;80.60;;;;;;5052280;28;20235;-67
2021/03/27 00:12:12;;;;;;;6.33;4.30;;;14.40;80.30;;;;;;5052424;28;20202;-67
2021/03/27 00:14:45;;;;;;;7.27;4.13;;;14.50;80.30;;;;;;5052616;28;20212;-67
2021/03/27 00:17:15;;;;;;;7.90;4.07;;;14.40;80.70;;;;;;5052198;28;20708;-66
2021/03/27 00:19:46;;;;;;;7.77;4.23;;;14.40;80.80;;;;;;5052551;28;20297;-68
2021/03/27 00:22:22;;;;;;;11.90;4.77;;;14.40;81.00;;;;;;5052366;28;20318;-67
2021/03/27 00:25:00;;;;;;;6.37;4.03;;;14.20;82.00;;;;;;5052239;28;20205;-68
2021/03/27 00:27:33;;;;;;;7.23;4.40;;;14.30;83.00;;;;;;5052415;28;20212;-66
2021/03/27 00:30:06;;;;;;;7.90;4.73;;;14.30;83.40;;;;;;5052076;28;20237;-68
2021/03/27 00:32:36;;;;;;;6.43;4.50;;;14.30;83.90;;;;;;5052627;28;20206;-68
2021/03/27 00:35:09;;;;;;;10.07;4.80;;;14.30;84.00;;;;;;5052140;28;20210;-68
2021/03/27 00:37:36;;;;;;;7.03;4.20;;;14.40;84.40;;;;;;5052145;28;20216;-67
2021/03/27 00:40:07;;;;;;;7.37;4.17;;;14.40;84.40;;;;;;5051575;28;20717;-67
2021/03/27 00:42:38;;;;;;;7.17;3.90;;;14.30;85.10;;;;;;5052121;28;20225;-68
2021/03/27 00:45:11;;;;;;;6.30;3.43;;;14.30;85.20;;;;;;5051847;28;20702;-68
2021/03/27 00:47:46;;;;;;;4.87;3.40;;;14.20;85.00;;;;;;5052010;28;20209;-68
2021/03/27 00:50:22;;;;;;;6.07;3.80;;;14.20;85.50;;;;;;5051063;28;20607;-68
2021/03/27 00:52:51;;;;;;;4.20;3.50;;;14.30;85.50;;;;;;5054229;28;20246;-68
2021/03/27 00:55:22;;;;;;;4.63;3.60;;;14.40;85.60;;;;;;5056829;28;20216;-68
2021/03/27 00:57:55;;;;;;;5.03;3.77;;;14.30;86.50;;;;;;5051352;28;20216;-69
2021/03/27 01:00:30;;;;;;;5.33;3.80;;;14.30;86.90;;;;;;5051415;28;20240;-68
2021/03/27 01:03:02;;;;;;;7.20;4.20;;;14.10;87.70;;;;;;5051170;28;20232;-68
2021/03/27 01:05:30;;;;;;;5.20;3.63;;;14.10;88.70;;;;;;5050952;28;20209;-67
2021/03/27 01:07:57;;;;;;;5.10;3.73;;;13.90;89.70;;;;;;5050912;28;20210;-68
2021/03/27 01:10:29;;;;;;;4.93;3.63;;;13.90;90.00;;;;;;5050972;28;20759;-68
2021/03/27 01:12:56;;;;;;;6.73;3.70;;;13.70;90.40;;;;;;5050977;28;20599;-68
2021/03/27 01:15:27;;;;;;;4.97;3.70;;;13.70;90.70;;;;;;5050962;28;20264;-68
2021/03/27 01:17:56;;;;;;;4.27;3.70;;;13.80;90.80;;;;;;5050784;28;20209;-68
2021/03/27 01:20:26;;;;;;;4.40;3.43;;;13.70;91.00;;;;;;5050838;28;20230;-68
2021/03/27 01:22:54;;;;;;;4.60;3.43;;;13.70;91.20;;;;;;5050760;28;20229;-68
2021/03/27 01:25:24;;;;;;;5.17;3.07;;;13.70;91.30;;;;;;5050975;28;20210;-68
2021/03/27 01:27:55;;;;;;;5.07;3.33;;;13.60;91.60;;;;;;5050991;28;20206;-69
2021/03/27 01:30:30;;;;;;;5.00;3.37;;;13.50;92.10;;;;;;5051590;28;20233;-69
2021/03/27 01:33:16;;;;;;;3.67;3.13;;;13.40;92.50;;;;;;5051658;28;20259;-68
2021/03/27 01:35:46;;;;;;;4.93;3.37;;;13.40;92.60;;;;;;5050585;28;20264;-68
2021/03/27 01:38:17;;;;;;;4.57;3.70;;;13.30;93.10;;;;;;5050979;28;20236;-67
2021/03/27 01:40:54;;;;;;;3.90;3.50;;;13.30;93.40;;;;;;5050829;28;20642;-68
2021/03/27 01:43:29;;;;;;;5.40;3.30;;;13.30;93.60;;;;;;5050898;28;20212;-69
2021/03/27 01:46:41;;;;;;;4.47;3.40;;;13.20;93.90;;;;;;5050690;28;20567;-68
2021/03/27 01:49:25;;;;;;;4.43;3.50;;;13.20;94.20;;;;;;5050912;28;20475;-68
2021/03/27 01:52:13;;;;;;;4.10;3.30;;;13.20;94.50;;;;;;5050971;28;20232;-68
2021/03/27 01:54:48;;;;;;;7.20;3.20;;;13.10;94.70;;;;;;5043905;28;20202;-68
2021/03/27 01:57:23;;;;;;;3.80;3.40;;;13.10;94.60;;;;;;5050816;28;20321;-67
2021/03/27 01:59:52;;;;;;;8.03;3.40;;;13.30;94.60;;;;;;5051037;28;20221;-67
2021/03/27 02:02:25;;;;;;;6.00;3.20;;;13.30;94.90;;;;;;5053651;28;20225;-66
2021/03/27 02:05:00;;;;;;;5.20;3.23;;;13.40;95.50;;;;;;5054479;28;20704;-67
2021/03/27 02:07:43;;;;;;;5.50;3.60;;;13.30;96.00;;;;;;5055034;28;20730;-67
2021/03/27 02:10:17;;;;;;;3.80;3.37;;;13.40;96.60;;;;;;5055144;28;20229;-67
2021/03/27 02:12:55;;;;;;;3.83;2.97;;;13.50;96.90;;;;;;5055178;28;20209;-69
2021/03/27 02:15:32;;;;;;;3.67;3.37;;;13.40;97.30;;;;;;5054754;28;20259;-67
2021/03/27 02:18:05;;;;;;;9.23;6.53;;;13.40;97.80;;;;;;5054266;28;20206;-68
2021/03/27 02:20:54;;;;;;;4.40;3.60;;;13.30;98.30;;;;;;5054663;28;20311;-66
2021/03/27 02:23:30;;;;;;;3.40;3.10;;;13.20;98.80;;;;;;5054350;28;20577;-66
2021/03/27 02:26:28;;;;;;;4.67;3.80;;;13.20;99.20;;;;;;5054015;28;20677;-68
2021/03/27 02:29:27;;;;;;;5.93;3.93;;;13.10;99.80;;;;;;5054207;28;20210;-67
2021/03/27 02:31:59;;;;;;;6.10;3.77;;;13.10;99.90;;;;;;5054219;28;20201;-67
2021/03/27 02:34:34;;;;;;;5.13;4.30;;;13.00;99.90;;;;;;5054759;28;20205;-67
2021/03/27 02:37:05;;;;;;;5.30;3.70;;;13.10;99.90;;;;;;5053868;28;20205;-68
2021/03/27 02:39:40;;;;;;;5.37;3.70;;;13.00;99.90;;;;;;5053904;28;20279;-67
2021/03/27 02:42:16;;;;;;;5.33;3.70;;;12.80;99.90;;;;;;5054044;28;20235;-68
2021/03/27 02:44:48;;;;;;;5.10;3.60;;;12.80;99.90;;;;;;5053630;28;20213;-68
2021/03/27 02:47:31;;;;;;;4.87;3.90;;;12.90;99.90;;;;;;5053536;28;20213;-67
2021/03/27 02:50:08;;;;;;;5.27;3.60;;;12.80;99.90;;;;;;5054536;28;20240;-66
2021/03/27 02:52:51;;;;;;;5.10;3.70;;;12.80;99.90;;;;;;5057170;28;20216;-66
2021/03/27 02:55:24;;;;;;;4.17;3.43;;;12.50;99.90;;;;;;5057910;28;20684;-66
2021/03/27 02:57:59;;;;;;;4.67;3.77;;;12.50;99.90;;;;;;5056782;28;20209;-66
2021/03/27 03:00:30;;;;;;;4.70;3.70;;;12.40;99.90;;;;;;5056857;28;20298;-66
2021/03/27 03:03:04;;;;;;;4.57;3.40;;;12.50;99.90;;;;;;5056680;28;20233;-66
2021/03/27 03:05:37;;;;;;;4.00;3.40;;;12.50;99.90;;;;;;5056119;28;20206;-66
2021/03/27 03:08:11;;;;;;;4.77;3.30;;;12.40;99.90;;;;;;5056332;28;20627;-66
2021/03/27 03:10:42;;;;;;;4.50;3.23;;;12.40;99.90;;;;;;5056029;28;20230;-66
2021/03/27 03:13:18;;;;;;;5.03;3.57;;;12.40;99.90;;;;;;5055384;28;20205;-66
2021/03/27 03:15:53;;;;;;;5.47;3.73;;;12.40;99.90;;;;;;5055138;28;20216;-66
2021/03/27 03:18:31;;;;;;;5.63;3.30;;;12.40;99.90;;;;;;5055016;28;20205;-66
2021/03/27 03:21:03;;;;;;;5.00;3.70;;;12.30;99.90;;;;;;5054711;28;20228;-66
2021/03/27 03:23:35;;;;;;;4.47;3.60;;;12.30;99.90;;;;;;5054888;28;20205;-66
2021/03/27 03:26:19;;;;;;;3.90;3.33;;;12.30;99.90;;;;;;5055200;28;20256;-66
2021/03/27 03:28:55;;;;;;;5.30;3.43;;;12.30;99.90;;;;;;5055098;28;20412;-66
2021/03/27 03:31:36;;;;;;;3.97;3.57;;;12.20;99.90;;;;;;5055119;28;20257;-66
2021/03/27 03:34:20;;;;;;;5.33;3.60;;;11.90;99.90;;;;;;5055458;28;20210;-65
2021/03/27 03:36:56;;;;;;;3.57;3.17;;;11.70;99.90;;;;;;5055535;28;20239;-65
2021/03/27 03:39:36;;;;;;;4.80;3.23;;;11.70;99.90;;;;;;5054804;28;20251;-66
2021/03/27 03:42:18;;;;;;;5.03;3.13;;;11.80;99.90;;;;;;5055264;28;20271;-66
2021/03/27 03:44:55;;;;;;;3.27;2.87;;;11.80;99.90;;;;;;5055004;28;20214;-66
2021/03/27 03:47:33;;;;;;;3.00;2.50;;;11.80;99.90;;;;;;5055495;28;20213;-66
2021/03/27 03:50:18;;;;;;;4.80;2.50;;;11.70;99.90;;;;;;5055570;28;20229;-65
2021/03/27 03:53:13;;;;;;;3.53;2.87;;;11.70;99.90;;;;;;5055328;28;20275;-66
2021/03/27 03:55:51;;;;;;;3.90;2.50;;;11.80;99.90;;;;;;5055235;28;20212;-66
2021/03/27 03:58:40;;;;;;;4.20;2.37;;;11.80;99.90;;;;;;5055421;28;20209;-65
2021/03/27 04:01:10;;;;;;;2.20;1.60;;;11.70;99.90;;;;;;5055385;28;20222;-65
2021/03/27 04:03:43;;;;;;;2.40;1.40;;;11.50;99.90;;;;;;5055514;28;20201;-66
2021/03/27 04:06:16;;;;;;;1.50;1.10;;;11.30;99.90;;;;;;5055540;28;20216;-65
2021/03/27 04:08:53;;;;;;;4.47;1.43;;;11.10;99.90;;;;;;5054750;28;20239;-65
2021/03/27 04:11:50;;;;;;;2.10;1.33;;;10.90;99.90;;;;;;5055827;28;20724;-65
2021/03/27 04:14:33;;;;;;;3.30;0.90;;;10.90;99.90;;;;;;5055005;28;20472;-66
2021/03/27 04:17:04;;;;;;;1.40;0.60;;;10.80;99.90;;;;;;5055570;28;20618;-65
2021/03/27 04:19:38;;;;;;;1.17;0.50;;;10.80;99.90;;;;;;5055750;28;20642;-66
2021/03/27 04:22:13;;;;;;;2.20;0.60;;;10.60;99.90;;;;;;5055661;28;20214;-66
2021/03/27 04:24:53;;;;;;;2.63;0.70;;;10.70;99.90;;;;;;5055961;28;20205;-66
2021/03/27 04:27:27;;;;;;;1.97;1.00;;;10.50;99.90;;;;;;5056361;28;20201;-66
2021/03/27 04:30:05;;;;;;;1.70;0.60;;;10.40;99.90;;;;;;5056269;28;20228;-66
2021/03/27 04:32:39;;;;;;;1.03;0.70;;;10.50;99.90;;;;;;5057643;28;20209;-66
2021/03/27 04:35:30;;;;;;;1.17;0.90;;;10.40;99.90;;;;;;5056772;28;20206;-66
2021/03/27 04:38:12;;;;;;;1.77;0.80;;;10.40;99.90;;;;;;5057313;28;20194;-66
2021/03/27 04:40:44;;;;;;;1.83;1.10;;;10.30;99.90;;;;;;5057953;28;20225;-66
2021/03/27 04:43:17;;;;;;;0.70;0.70;;;10.30;99.90;;;;;;5058302;28;20216;-65
2021/03/27 04:45:48;;;;;;;3.93;0.50;;;10.30;99.90;;;;;;5057811;28;20666;-65
2021/03/27 04:48:23;;;;;;;1.90;0.90;;;10.30;99.90;;;;;;5058260;28;20201;-65
2021/03/27 04:51:03;;;;;;;0.60;0.60;;;10.20;99.90;;;;;;5057237;28;20228;-66
2021/03/27 04:53:33;;;;;;;1.13;0.50;;;10.20;99.90;;;;;;5056805;28;20581;-66
2021/03/27 04:56:08;;;;;;;0.63;0.50;;;10.10;99.90;;;;;;5057168;28;20201;-66
2021/03/27 04:58:41;;;;;;;2.40;0.70;;;10.10;99.90;;;;;;5058259;28;20209;-66
2021/03/27 05:01:22;;;;;;;1.40;0.30;;;10.10;99.90;;;;;;5059168;28;20240;-66
2021/03/27 05:03:56;;;;;;;1.23;0.67;;;10.10;99.90;;;;;;5059201;28;20239;-66
2021/03/27 05:06:32;;;;;;;0.37;0.30;;;10.10;99.90;;;;;;5058775;28;20521;-66
2021/03/27 05:09:15;;;;;;;0.57;0.40;;;9.90;99.90;;;;;;5058211;28;20251;-66
2021/03/27 05:11:50;;;;;;;0.30;0.30;;;9.70;99.90;;;;;;5058399;28;20594;-65
2021/03/27 05:14:38;;;;;;;2.10;0.40;;;9.60;99.90;;;;;;5058396;28;20205;-65
2021/03/27 05:17:11;;;;;;;2.07;0.40;;;9.40;99.90;;;;;;5057583;28;20205;-64
2021/03/27 05:19:44;;;;;;;0.77;0.30;;;9.40;99.90;;;;;;5057924;28;20229;-65
2021/03/27 05:22:31;;;;;;;1.30;0.43;;;9.30;99.90;;;;;;5058641;28;20251;-65
2021/03/27 05:25:11;;;;;;;0.90;0.60;;;9.20;99.90;;;;;;5059110;28;20201;-65
2021/03/27 05:27:44;;;;;;;0.50;0.50;;;9.20;99.90;;;;;;5058988;28;20205;-64
2021/03/27 05:30:23;;;;;;;1.10;0.70;;;9.20;99.90;;;;;;5059021;28;20225;-65
2021/03/27 05:33:08;;;;;;;0.93;0.60;;;9.00;99.90;;;;;;5058755;28;20802;-65
2021/03/27 05:35:42;;;;;;;0.60;0.60;;;9.00;99.90;;;;;;5049848;28;20235;-65
2021/03/27 05:38:15;;;;;;;0.60;0.60;;;8.90;99.90;;;;;;5062070;28;20201;-65
2021/03/27 05:41:32;;;;;;;0.77;0.60;;;8.90;99.90;;;;;;5063206;28;20229;-64
2021/03/27 05:44:34;;;;;;;1.07;0.43;;;9.00;99.90;;;;;;5061392;28;20210;-64
2021/03/27 05:47:42;;;;;;;1.03;0.53;;;9.10;99.90;;;;;;5060210;28;20216;-65
2021/03/27 05:50:25;;;;;;;0.80;0.50;;;9.00;99.90;;;;;;5058869;28;20236;-64
2021/03/27 05:53:26;;;;;;;1.07;0.57;;;8.90;99.90;;;;;;5060497;28;20220;-65
2021/03/27 05:56:08;;;;;;;0.60;0.43;;;8.90;99.90;;;;;;5061305;28;20214;-65
2021/03/27 05:59:08;;;;;;;0.70;0.70;;;9.00;99.90;;;;;;5061483;28;20255;-65
2021/03/27 06:01:52;;;;;;;2.47;0.60;;;9.10;99.90;;;;;;5054606;28;20229;-65
2021/03/27 06:04:40;;;;;;;1.63;0.60;;;9.20;99.90;;;;;;5062688;28;20206;-65
2021/03/27 06:07:46;;;;;;;1.17;0.63;;;9.30;99.90;;;;;;5061716;28;20212;-65
2021/03/27 06:10:36;;;;;;;0.53;0.53;;;9.20;99.90;;;;;;5061345;28;20232;-66
2021/03/27 06:13:25;;;;;;;1.47;0.70;;;9.20;99.90;;;;;;5060845;28;20209;-66
2021/03/27 06:16:31;;;;;;;0.57;0.40;;;9.20;99.90;;;;;;5062022;28;20216;-65
2021/03/27 06:19:38;;;;;;;2.67;1.00;;;9.40;99.90;;;;;;5054573;28;20206;-65
2021/03/27 06:22:27;;;;;;;1.73;1.30;;;9.50;99.90;;;;;;5061715;28;20274;-65
2021/03/27 06:25:26;;;;;;;1.33;0.93;;;9.40;99.90;;;;;;5061469;28;20224;-65
2021/03/27 06:28:21;;;;;;;0.97;0.70;;;9.30;99.90;;;;;;5061563;28;20224;-66
2021/03/27 06:31:06;;;;;;;1.53;0.53;;;9.10;99.90;;;;;;5042560;28;20228;-65
2021/03/27 06:34:09;;;;;;;0.70;0.70;;;10.30;99.90;;;;;;5062641;28;20205;-65
2021/03/27 06:37:06;;;;;;;1.00;0.80;;;11.10;98.50;;;;;;5061708;28;20228;-65
2021/03/27 06:40:02;;;;;;;2.00;0.90;;;11.30;98.00;;;;;;5058826;28;20615;-66
2021/03/27 06:43:07;;;;;;;1.23;0.60;;;11.20;97.50;;;;;;5063432;28;20218;-65
2021/03/27 06:45:56;;;;;;;1.03;0.57;;;10.80;97.30;;;;;;5062709;28;20209;-65
2021/03/27 06:49:05;;;;;;;0.77;0.53;;;10.50;97.10;;;;;;5061588;28;20214;-66
2021/03/27 06:52:00;;;;;;;1.67;0.83;;;10.30;96.90;;;;;;5064745;28;20217;-65
2021/03/27 06:54:40;;;;;;;3.60;1.00;;;10.20;96.60;;;;;;5064565;28;20590;-66
2021/03/27 06:57:21;;;;;;;2.10;0.90;;;10.20;97.10;;;;;;5066492;28;20213;-65
2021/03/27 07:00:39;;;;;;;1.17;0.87;;;10.30;96.70;;;;;;5066200;28;20221;-66
2021/03/27 07:03:41;;;;;;;1.37;0.70;;;11.40;96.00;;;;;;5066684;28;20229;-66
2021/03/27 07:06:44;;;;;;;1.90;0.70;;;14.10;92.70;;;;;;5065917;28;20205;-64
2021/03/27 07:10:06;;;;;;;2.87;0.60;;;16.90;87.50;;;;;;5064568;28;20614;-67
2021/03/27 07:12:59;;;;;;;2.87;1.10;;;19.10;76.70;;;;;;5019883;28;20691;-67
2021/03/27 07:15:59;;;;;;;2.43;1.60;;;20.20;71.30;;;;;;5019620;28;20246;-67
2021/03/27 07:18:49;;;;;;;1.30;0.70;;;19.60;67.90;;;;;;5039653;28;20477;-66
2021/03/27 07:21:39;;;;;;;2.83;0.87;;;18.40;69.10;;;;;;5061161;28;20240;-64
2021/03/27 07:24:24;;;;;;;2.90;1.00;;;17.30;72.30;;;;;;5059466;28;20744;-66
2021/03/27 07:27:25;;;;;;;1.53;0.97;;;16.60;74.80;;;;;;5059606;28;20217;-66
2021/03/27 07:30:27;;;;;;;3.13;1.17;;;15.80;77.60;;;;;;5060351;28;20229;-66
2021/03/27 07:33:20;;;;;;;3.30;1.00;;;14.90;81.30;;;;;;5061356;28;20205;-66
2021/03/27 07:36:33;;;;;;;4.50;0.80;;;14.50;82.40;;;;;;5059848;28;20206;-66
2021/03/27 07:39:24;;;;;;;2.03;0.83;;;14.30;83.20;;;;;;5059807;28;20807;-66
2021/03/27 07:42:01;;;;;;;0.87;0.63;;;13.80;84.90;;;;;;5060891;28;20256;-65
2021/03/27 07:44:45;;;;;;;5.97;1.20;;;13.60;86.70;;;;;;5061059;28;20213;-65
2021/03/27 07:47:39;;;;;;;3.60;1.47;;;13.50;86.20;;;;;;5060367;28;20205;-65
2021/03/27 07:50:41;;;;;;;2.70;0.80;;;14.90;82.20;;;;;;5060709;28;20256;-65
2021/03/27 07:53:25;;;;;;;2.17;0.60;;;16.90;72.50;;;;;;5054766;28;20205;-66
2021/03/27 07:56:36;;;;;;;2.80;0.80;;;18.20;64.30;;;;;;5060073;28;20634;-66
2021/03/27 07:59:35;;;;;;;2.78;0.90;;;19.40;60.90;;;;;;5060659;28;20237;-65
2021/03/27 08:02:41;;;;;;;2.50;0.60;;;20.30;56.50;;;;;;5061055;28;20226;-66
2021/03/27 08:05:47;;;;;;;1.83;0.60;;;19.70;54.30;;;;;;5059803;28;20477;-66
2021/03/27 08:08:58;;;;;;;2.27;0.83;;;18.20;56.40;;;;;;5058977;28;20229;-70
2021/03/27 08:11:54;;;;;;;2.97;0.70;;;16.80;59.10;;;;;;5060114;28;20222;-66
2021/03/27 08:14:44;;;;;;;1.57;0.80;;;15.40;61.20;;;;;;5060626;28;20209;-66
2021/03/27 08:17:38;;;;;;;3.00;0.80;;;14.10;62.30;;;;;;5058380;28;20565;-66
2021/03/27 08:20:47;;;;;;;1.73;0.57;;;13.10;65.40;;;;;;5059527;28;20229;-65
2021/03/27 08:23:25;;;;;;;1.70;0.63;;;12.30;66.10;;;;;;5053458;28;20279;-66
2021/03/27 08:26:18;;;;;;;1.73;0.80;;;11.80;66.90;;;;;;5059157;28;20194;-66
2021/03/27 08:29:29;;;;;;;2.00;0.60;;;11.80;68.20;;;;;;5058411;28;20209;-66
2021/03/27 08:32:14;;;;;;;2.90;0.83;;;11.90;67.80;;;;;;5058881;28;20208;-65
2021/03/27 08:35:06;;;;;;;3.80;0.47;;;12.10;68.30;;;;;;5059082;28;20205;-66
2021/03/27 08:38:07;;;;;;;2.70;0.77;;;12.40;68.00;;;;;;5053049;28;20202;-66
2021/03/27 08:40:57;;;;;;;2.40;0.63;;;12.60;68.30;;;;;;5056850;28;20321;-66
2021/03/27 08:44:04;;;;;;;1.97;0.50;;;12.80;68.60;;;;;;5056916;28;20247;-66
2021/03/27 08:46:59;;;;;;;1.87;0.87;;;12.70;68.40;;;;;;5057016;28;20202;-66
2021/03/27 08:50:08;;;;;;;3.23;0.73;;;12.80;70.70;;;;;;5056641;28;20237;-66
2021/03/27 08:53:00;;;;;;;3.60;1.27;;;12.90;70.50;;;;;;5054371;28;20275;-67
2021/03/27 08:55:40;;;;;;;1.43;0.60;;;12.90;69.60;;;;;;5052971;28;20246;-67
2021/03/27 08:58:30;;;;;;;1.57;0.70;;;12.60;68.10;;;;;;5052797;28;20216;-67
2021/03/27 09:01:20;;;;;;;5.43;4.10;;;12.30;67.40;;;;;;5053572;28;20229;-67
2021/03/27 09:04:22;;;;;;;4.33;0.70;;;11.90;68.90;;;;;;5052844;28;20359;-67
2021/03/27 09:07:09;;;;;;;3.17;0.70;;;11.90;69.80;;;;;;5052681;28;20216;-67
2021/03/27 09:10:02;;;;;;;2.23;0.70;;;11.70;68.90;;;;;;5052512;28;20248;-62
2021/03/27 09:12:43;;;;;;;0.77;0.57;;;11.70;70.00;;;;;;5051513;28;20205;-66
2021/03/27 09:15:39;;;;;;;3.00;0.93;;;11.70;69.80;;;;;;5051837;28;20210;-67
2021/03/27 09:18:45;;;;;;;1.40;0.60;;;11.60;69.20;;;;;;5051182;28;20275;-66
2021/03/27 09:21:27;;;;;;;3.37;1.03;;;11.70;70.00;;;;;;5051123;28;20228;-65
2021/03/27 09:24:08;;;;;;;2.17;0.80;;;11.80;69.10;;;;;;5050960;28;20229;-66
2021/03/27 09:27:01;;;;;;;1.63;0.50;;;11.90;69.20;;;;;;5051311;28;20228;-66
2021/03/27 09:29:53;;;;;;;2.37;0.90;;;12.10;69.30;;;;;;5048589;28;20605;-66
2021/03/27 09:32:43;;;;;;;2.03;0.73;;;12.00;69.40;;;;;;5050968;28;20213;-63
2021/03/27 09:35:25;;;;;;;2.53;0.67;;;12.10;69.50;;;;;;5050804;28;20209;-64
2021/03/27 09:38:14;;;;;;;2.87;0.60;;;12.20;68.60;;;;;;5050831;28;20666;-64
2021/03/27 09:41:04;;;;;;;2.27;0.90;;;12.40;67.50;;;;;;5050902;28;20543;-63
2021/03/27 09:44:09;;;;;;;1.73;0.70;;;12.20;63.00;;;;;;5050667;28;20590;-63
2021/03/27 09:46:48;;;;;;;1.33;0.43;;;12.00;63.00;;;;;;5008513;28;20226;-64
2021/03/27 09:49:31;;;;;;;1.13;0.60;;;11.90;60.60;;;;;;5046715;28;20212;-64
2021/03/27 09:52:21;;;;;;;1.20;0.40;;;12.00;61.00;;;;;;5050424;28;20211;-64
2021/03/27 09:54:51;;;;;;;0.70;0.40;;;12.00;62.20;;;;;;5050478;28;20293;-64
2021/03/27 09:57:26;;;;;;;3.00;0.60;;;12.00;62.70;;;;;;5050547;28;20268;-64
2021/03/27 10:00:08;;;;;;;3.43;0.53;;;12.10;62.00;;;;;;5050365;28;20257;-64
2021/03/27 10:02:39;;;;;;;5.97;0.90;;;12.00;61.30;;;;;;5050447;28;20225;-63
2021/03/27 10:05:37;;;;;;;4.37;0.67;;;12.10;62.20;;;;;;5050480;28;20201;-63
2021/03/27 10:08:18;;;;;;;1.33;0.67;;;12.20;63.80;;;;;;5050230;28;20235;-63
2021/03/27 10:11:01;;;;;;;2.53;0.57;;;12.30;63.70;;;;;;5050364;28;20236;-64
2021/03/27 10:13:53;;;;;;;1.77;0.50;;;12.40;62.50;;;;;;5050749;28;20662;-63
2021/03/27 10:16:25;;;;;;;1.20;0.40;;;12.60;61.20;;;;;;5050817;28;20217;-63
2021/03/27 10:19:01;;;;;;;2.57;0.67;;;12.90;60.80;;;;;;5050561;28;20674;-64
2021/03/27 10:21:44;;;;;;;2.47;0.90;;;13.30;59.20;;;;;;5050636;28;20267;-63
2021/03/27 10:24:29;;;;;;;2.37;1.47;;;14.00;58.90;;;;;;5054422;28;20190;-63
2021/03/27 10:27:03;;;;;;;2.97;0.90;;;14.30;58.20;;;;;;5054117;28;20209;-63
2021/03/27 10:29:36;;;;;;;1.70;0.63;;;14.60;57.70;;;;;;5053991;28;20229;-64
2021/03/27 10:32:43;;;;;;;2.27;0.60;;;14.60;57.60;;;;;;5053938;28;20233;-63
2021/03/27 10:35:33;;;;;;;2.10;0.90;;;14.90;56.70;;;;;;5054266;28;20209;-63
2021/03/27 10:38:09;;;;;;;3.80;2.37;;;14.90;55.30;;;;;;5032783;28;20210;-63
2021/03/27 10:40:44;;;;;;;2.20;1.13;;;14.70;56.40;;;;;;5054098;28;20248;-64
2021/03/27 10:43:32;;;;;;;2.20;0.83;;;14.70;55.60;;;;;;5053880;28;20229;-63
2021/03/27 10:46:18;;;;;;;1.10;0.60;;;14.90;55.60;;;;;;5046921;28;20208;-63
2021/03/27 10:49:05;;;;;;;0.90;0.50;;;15.10;55.30;;;;;;5053525;28;20201;-63
2021/03/27 10:52:13;;;;;;;1.97;0.60;;;15.20;55.50;;;;;;5053786;28;20213;-64
2021/03/27 10:54:55;;;;;;;1.70;0.70;;;15.10;56.20;;;;;;5042864;28;20205;-63
2021/03/27 10:57:53;;;;;;;3.10;1.10;;;14.80;55.90;;;;;;5053899;28;20232;-64
2021/03/27 11:00:35;;;;;;;4.43;0.77;;;14.60;57.60;;;;;;5053764;28;20237;-63
2021/03/27 11:03:30;;;;;;;1.20;0.60;;;14.30;56.80;;;;;;5053125;28;20571;-63
2021/03/27 11:06:14;;;;;;;3.17;1.30;;;14.10;57.40;;;;;;5053968;28;20212;-63
2021/03/27 11:09:15;;;;;;;5.57;1.90;;;14.00;55.30;;;;;;5053166;28;20213;-63
2021/03/27 11:12:08;;;;;;;4.63;1.17;;;14.20;55.60;;;;;;5053487;28;20615;-63
2021/03/27 11:15:15;;;;;;;5.20;0.97;;;14.50;54.80;;;;;;5052811;28;20255;-63
2021/03/27 11:18:19;;;;;;;2.03;0.77;;;15.00;53.00;;;;;;5053325;28;20295;-64
2021/03/27 11:21:11;;;;;;;2.87;0.80;;;15.40;52.50;;;;;;5039723;28;20248;-63
2021/03/27 11:23:48;;;;;;;2.10;1.03;;;15.60;52.50;;;;;;5053190;28;20728;-63
2021/03/27 11:26:54;;;;;;;6.83;1.47;;;15.70;53.30;;;;;;5053211;28;20225;-63
2021/03/27 11:29:28;;;;;;;2.47;0.90;;;15.80;52.70;;;;;;5053111;28;20256;-63
2021/03/27 11:32:06;;;;;;;3.10;0.70;;;15.90;52.30;;;;;;5053273;28;20205;-63
2021/03/27 11:34:37;;;;;;;1.73;0.70;;;15.90;50.90;;;;;;5052127;28;20213;-63
2021/03/27 11:37:11;;;;;;;2.60;0.80;;;15.70;51.30;;;;;;5053428;28;20217;-63
2021/03/27 11:39:43;;;;;;;3.67;0.97;;;15.70;51.30;;;;;;5053018;28;20228;-63
2021/03/27 11:42:22;;;;;;;3.30;1.00;;;15.60;51.70;;;;;;5052833;28;20233;-63
2021/03/27 11:45:00;;;;;;;2.13;0.70;;;15.70;51.30;;;;;;5052426;28;20212;-64
2021/03/27 11:47:35;;;;;;;1.00;0.50;;;15.70;51.50;;;;;;5052521;28;20296;-64
2021/03/27 11:50:32;;;;;;;3.97;0.97;;;15.60;51.30;;;;;;5052507;28;20237;-64
2021/03/27 11:53:09;;;;;;;2.27;1.10;;;15.60;51.30;;;;;;5052343;28;20735;-64
2021/03/27 11:55:40;;;;;;;3.60;1.70;;;15.60;51.30;;;;;;5049605;28;20444;-64
2021/03/27 11:58:19;;;;;;;1.87;1.00;;;15.80;51.80;;;;;;5052438;28;20205;-63
2021/03/27 12:01:00;;;;;;;2.47;0.70;;;15.70;52.40;;;;;;5052110;28;20283;-63
2021/03/27 12:03:37;;;;;;;2.77;1.07;;;15.50;52.90;;;;;;5051821;28;20244;-63
2021/03/27 12:06:17;;;;;;;2.27;1.00;;;15.40;52.00;;;;;;5046199;28;20208;-66
2021/03/27 12:08:55;;;;;;;3.00;0.80;;;15.00;51.60;;;;;;5052378;28;20224;-68
2021/03/27 12:11:49;;;;;;;2.47;1.00;;;14.70;52.00;;;;;;5032020;28;20242;-67
2021/03/27 12:14:20;;;;;;;1.57;0.67;;;14.60;51.70;;;;;;5031626;28;20792;-67
2021/03/27 12:16:57;;;;;;;2.57;0.80;;;14.60;52.70;;;;;;5032206;28;20206;-65
2021/03/27 12:19:31;;;;;;;3.37;1.10;;;14.50;54.10;;;;;;5032164;28;20226;-64
2021/03/27 12:22:05;;;;;;;2.20;1.00;;;14.40;54.30;;;;;;5032224;28;20212;-62
2021/03/27 12:24:46;;;;;;;3.37;0.93;;;14.30;54.60;;;;;;5031835;28;20674;-64
2021/03/27 12:27:27;;;;;;;3.50;0.80;;;14.30;55.40;;;;;;5032213;28;20210;-66
2021/03/27 12:30:01;;;;;;;3.37;1.17;;;14.20;53.80;;;;;;5031878;28;20639;-64
2021/03/27 12:32:49;;;;;;;1.40;0.63;;;14.10;54.00;;;;;;5032786;28;20187;-66
2021/03/27 12:35:23;;;;;;;4.37;0.97;;;14.00;53.90;;;;;;5031701;28;20689;-66
2021/03/27 12:38:03;;;;;;;3.30;1.27;;;13.90;54.50;;;;;;5031948;28;20210;-65
2021/03/27 12:40:33;;;;;;;5.27;1.27;;;13.70;55.10;;;;;;5030104;28;20316;-64
2021/03/27 12:43:06;;;;;;;2.00;1.17;;;13.80;55.60;;;;;;5029174;28;20218;-65
2021/03/27 12:45:38;;;;;;;4.57;1.10;;;13.90;55.30;;;;;;5030183;28;20217;-64
2021/03/27 12:48:25;;;;;;;2.50;0.80;;;14.00;55.40;;;;;;5030484;28;20206;-63
2021/03/27 12:51:05;;;;;;;3.50;1.10;;;14.00;55.00;;;;;;5030492;28;20665;-63
2021/03/27 12:53:56;;;;;;;2.37;1.33;;;14.00;54.60;;;;;;5030769;28;20289;-62
2021/03/27 12:56:34;;;;;;;2.37;1.03;;;14.00;55.40;;;;;;5031762;28;20214;-64
2021/03/27 12:59:11;;;;;;;2.90;1.10;;;14.20;54.80;;;;;;5031921;28;20233;-63
2021/03/27 13:02:07;;;;;;;2.17;0.83;;;14.50;54.70;;;;;;5034061;28;20201;-63
2021/03/27 13:04:54;;;;;;;4.77;1.00;;;14.50;54.20;;;;;;5030225;28;20670;-64
2021/03/27 13:07:31;;;;;;;2.93;1.10;;;14.40;53.70;;;;;;5022420;28;20260;-66
2021/03/27 13:10:24;;;;;;;3.53;0.87;;;14.50;53.20;;;;;;5031163;28;20281;-65
2021/03/27 13:13:08;;;;;;;3.00;1.30;;;14.80;53.80;;;;;;5031212;28;20203;-66
2021/03/27 13:15:56;;;;;;;4.07;1.30;;;14.90;52.80;;;;;;5032239;28;20206;-70
2021/03/27 13:18:48;;;;;;;2.33;1.20;;;14.70;52.60;;;;;;5031791;28;20233;-68
2021/03/27 13:21:40;;;;;;;2.70;1.23;;;14.40;53.20;;;;;;5031081;28;20226;-66
2021/03/27 13:24:14;;;;;;;3.80;1.03;;;14.10;52.10;;;;;;5031601;28;20709;-65
2021/03/27 13:26:41;;;;;;;1.93;0.77;;;13.90;52.70;;;;;;5032239;28;20206;-64
2021/03/27 13:29:32;;;;;;;2.90;0.93;;;13.80;53.50;;;;;;5032656;28;20206;-67
2021/03/27 13:32:01;;;;;;;1.90;0.70;;;13.90;54.00;;;;;;5031026;28;20719;-64
2021/03/27 13:34:32;;;;;;;1.93;0.80;;;14.10;52.90;;;;;;5030825;28;20234;-65
2021/03/27 13:37:08;;;;;;;5.97;1.00;;;14.00;52.50;;;;;;5031024;28;20233;-66
2021/03/27 13:39:38;;;;;;;3.77;1.60;;;13.90;52.80;;;;;;5030793;28;20226;-63
2021/03/27 13:42:21;;;;;;;4.10;1.17;;;13.80;52.70;;;;;;5030928;28;20212;-63
2021/03/27 13:44:54;;;;;;;4.93;1.30;;;13.80;52.70;;;;;;5030925;28;20210;-64
2021/03/27 13:47:39;;;;;;;3.13;0.80;;;14.00;52.90;;;;;;5048091;28;20578;-64
2021/03/27 13:50:30;;;;;;;2.57;0.83;;;14.10;52.50;;;;;;5050514;28;20237;-65
2021/03/27 13:53:18;;;;;;;3.13;0.97;;;14.00;52.40;;;;;;5048153;28;20202;-63
2021/03/27 13:55:56;;;;;;;3.70;0.90;;;13.90;52.80;;;;;;5050272;28;20198;-64
2021/03/27 13:58:25;;;;;;;3.50;0.77;;;13.90;53.80;;;;;;5052707;28;20581;-63
2021/03/27 14:00:59;;;;;;;2.47;0.80;;;13.90;53.80;;;;;;5054174;28;20605;-63
2021/03/27 14:03:36;;;;;;;4.87;0.93;;;13.80;53.90;;;;;;5054459;28;20258;-66
2021/03/27 14:06:15;;;;;;;3.10;1.20;;;14.10;54.20;;;;;;5054103;28;20209;-63
2021/03/27 14:09:08;;;;;;;4.37;1.30;;;14.00;54.00;;;;;;5054141;28;20248;-65
2021/03/27 14:11:44;;;;;;;4.10;1.40;;;14.00;53.90;;;;;;5054155;28;20210;-65